createdAt,value
2022-08-21T00:02:23.718Z,16.15
2022-08-21T00:04:57.394Z,13.30
2022-08-21T00:07:25.760Z,19.80
2022-08-21T00:09:53.434Z,14.68
2022-08-21T00:12:46.733Z,16.83
2022-08-21T00:15:17.446Z,14.40
2022-08-21T00:18:05.237Z,17.10
2022-08-21T00:20:33.136Z,18.75
2022-08-21T00:23:04.876Z,18.75
2022-08-21T00:25:32.367Z,13.80
2022-08-21T00:27:59.620Z,14.02
2022-08-21T00:30:27.774Z,14.77
2022-08-21T00:32:57.656Z,27.02
2022-08-21T00:35:30.263Z,14.45
2022-08-21T00:37:57.309Z,12.85
2022-08-21T00:40:34.086Z,17.23
2022-08-21T00:43:04.688Z,15.13
2022-08-21T00:45:43.326Z,11.82
2022-08-21T00:48:10.251Z,14.75
2022-08-21T00:50:41.249Z,16.02
2022-08-21T00:53:28.601Z,16.05
2022-08-21T00:56:09.324Z,13.18
2022-08-21T00:58:40.896Z,13.13
2022-08-21T01:01:10.274Z,17.15
2022-08-21T01:03:38.275Z,14.23
2022-08-21T01:06:11.043Z,17.00
2022-08-21T01:08:38.062Z,17.95
2022-08-21T01:11:14.452Z,18.65
2022-08-21T01:13:46.762Z,20.13
2022-08-21T01:16:16.902Z,17.42
2022-08-21T01:18:45.201Z,18.60
2022-08-21T01:21:14.009Z,19.50
2022-08-21T01:23:44.241Z,14.90
2022-08-21T01:26:13.760Z,16.73
2022-08-21T01:28:50.320Z,15.70
2022-08-21T01:31:19.178Z,11.77
2022-08-21T01:33:53.309Z,16.20
2022-08-21T01:36:20.582Z,20.30
2022-08-21T01:38:48.295Z,19.50
2022-08-21T01:41:16.419Z,17.80
2022-08-21T01:43:45.431Z,14.82
2022-08-21T01:46:13.459Z,13.80
2022-08-21T01:48:40.514Z,13.05
2022-08-21T01:51:07.829Z,16.80
2022-08-21T01:53:37.643Z,14.60
2022-08-21T01:56:12.256Z,18.05
2022-08-21T01:58:43.955Z,24.88
2022-08-21T02:01:11.312Z,21.98
2022-08-21T02:03:39.304Z,12.85
2022-08-21T02:06:08.019Z,15.30
2022-08-21T02:08:35.337Z,15.90
2022-08-21T02:11:02.347Z,18.35
2022-08-21T02:13:29.497Z,19.67
2022-08-21T02:15:56.387Z,17.73
2022-08-21T02:18:23.357Z,17.02
2022-08-21T02:20:55.834Z,15.15
2022-08-21T02:23:27.333Z,14.50
2022-08-21T02:26:02.491Z,19.75
2022-08-21T02:28:29.564Z,11.50
2022-08-21T02:30:57.770Z,13.18
2022-08-21T02:33:25.181Z,16.65
2022-08-21T02:35:54.069Z,13.50
2022-08-21T02:38:27.308Z,15.93
2022-08-21T02:40:54.940Z,14.38
2022-08-21T02:43:24.167Z,10.80
2022-08-21T02:45:51.884Z,16.63
2022-08-21T02:48:21.242Z,17.58
2022-08-21T02:50:53.830Z,15.32
2022-08-21T02:53:21.324Z,15.75
2022-08-21T02:55:51.348Z,15.98
2022-08-21T02:58:20.353Z,18.52
2022-08-21T03:00:47.581Z,15.88
2022-08-21T03:03:14.719Z,13.43
2022-08-21T03:05:42.421Z,15.10
2022-08-21T03:08:11.343Z,18.52
2022-08-21T03:10:40.722Z,13.98
2022-08-21T03:13:07.987Z,14.40
2022-08-21T03:15:34.950Z,17.95
2022-08-21T03:18:02.669Z,16.60
2022-08-21T03:20:30.531Z,22.52
2022-08-21T03:22:57.672Z,17.10
2022-08-21T03:25:39.962Z,13.73
2022-08-21T03:28:14.051Z,12.55
2022-08-21T03:30:42.880Z,16.50
2022-08-21T03:33:12.154Z,18.90
2022-08-21T03:35:39.481Z,19.88
2022-08-21T03:38:06.311Z,16.58
2022-08-21T03:40:33.359Z,12.88
2022-08-21T03:43:00.465Z,13.10
2022-08-21T03:45:27.618Z,13.95
2022-08-21T03:47:57.419Z,18.33
2022-08-21T03:50:26.414Z,13.55
2022-08-21T03:52:53.291Z,17.13
2022-08-21T03:55:20.324Z,17.73
2022-08-21T03:57:47.329Z,19.20
2022-08-21T04:00:15.513Z,15.65
2022-08-21T04:02:44.666Z,15.02
2022-08-21T04:05:13.558Z,12.50
2022-08-21T04:07:40.583Z,13.50
2022-08-21T04:10:08.650Z,15.43
2022-08-21T04:12:35.589Z,14.55
2022-08-21T04:15:03.053Z,16.55
2022-08-21T04:17:30.058Z,15.45
2022-08-21T04:19:57.517Z,16.35
2022-08-21T04:22:24.630Z,19.92
2022-08-21T04:24:51.541Z,14.95
2022-08-21T04:27:18.734Z,12.98
2022-08-21T04:29:45.622Z,15.32
2022-08-21T04:32:12.523Z,13.05
2022-08-21T04:34:39.488Z,15.70
2022-08-21T04:37:06.533Z,19.70
2022-08-21T04:39:33.416Z,16.70
2022-08-21T04:42:00.450Z,17.00
2022-08-21T04:44:27.303Z,14.40
2022-08-21T04:46:54.169Z,19.45
2022-08-21T04:49:21.055Z,18.55
2022-08-21T04:51:47.962Z,17.15
2022-08-21T04:54:19.119Z,15.15
2022-08-21T04:56:51.143Z,15.85
2022-08-21T04:59:25.469Z,14.57
2022-08-21T05:01:52.919Z,16.42
2022-08-21T05:04:23.307Z,13.35
2022-08-21T05:06:50.565Z,15.23
2022-08-21T05:09:18.834Z,14.90
2022-08-21T05:11:45.955Z,11.27
2022-08-21T05:14:13.782Z,19.13
2022-08-21T05:16:41.653Z,17.20
2022-08-21T05:19:09.398Z,15.40
2022-08-21T05:21:37.425Z,11.02
2022-08-21T05:24:04.576Z,16.25
2022-08-21T05:26:31.736Z,13.93
2022-08-21T05:28:59.341Z,15.77
2022-08-21T05:31:26.406Z,13.35
2022-08-21T05:33:53.272Z,13.00
2022-08-21T05:36:23.393Z,16.42
2022-08-21T05:38:50.303Z,15.70
2022-08-21T05:41:17.207Z,14.85
2022-08-21T05:43:44.390Z,12.13
2022-08-21T05:46:11.378Z,12.27
2022-08-21T05:48:38.281Z,12.38
2022-08-21T05:51:08.374Z,16.67
2022-08-21T05:53:36.361Z,11.98
2022-08-21T05:56:04.965Z,13.45
2022-08-21T05:58:33.934Z,12.05
2022-08-21T06:01:02.384Z,16.20
2022-08-21T06:03:37.250Z,15.98
2022-08-21T06:06:04.277Z,14.57
2022-08-21T06:08:31.393Z,16.50
2022-08-21T06:10:59.992Z,14.52
2022-08-21T06:13:27.272Z,13.65
2022-08-21T06:16:09.816Z,14.85
2022-08-21T06:18:37.953Z,14.13
2022-08-21T06:21:05.795Z,16.13
2022-08-21T06:23:33.698Z,18.42
2022-08-21T06:26:01.597Z,15.38
2022-08-21T06:28:28.895Z,13.48
2022-08-21T06:30:55.830Z,13.35
2022-08-21T06:33:22.707Z,16.63
2022-08-21T06:35:49.603Z,17.02
2022-08-21T06:38:16.899Z,14.60
2022-08-21T06:40:47.608Z,16.88
2022-08-21T06:43:17.312Z,15.85
2022-08-21T06:45:45.242Z,13.88
2022-08-21T06:48:16.908Z,15.38
2022-08-21T06:50:46.411Z,14.65
2022-08-21T06:53:15.661Z,12.85
2022-08-21T06:55:43.414Z,12.88
2022-08-21T06:58:11.100Z,18.65
2022-08-21T07:00:42.945Z,14.60
2022-08-21T07:03:21.850Z,18.30
2022-08-21T07:05:48.772Z,13.80
2022-08-21T07:08:15.913Z,15.15
2022-08-21T07:10:42.862Z,13.15
2022-08-21T07:13:10.134Z,16.67
2022-08-21T07:15:37.130Z,15.75
2022-08-21T07:18:04.429Z,17.77
2022-08-21T07:20:32.711Z,17.65
2022-08-21T07:23:02.744Z,11.02
2022-08-21T07:25:30.044Z,18.95
2022-08-21T07:27:57.299Z,16.30
2022-08-21T07:30:25.063Z,13.18
2022-08-21T07:32:52.378Z,14.77
2022-08-21T07:35:23.161Z,13.68
2022-08-21T07:37:50.950Z,13.30
2022-08-21T07:40:19.107Z,16.00
2022-08-21T07:42:48.326Z,15.55
2022-08-21T07:45:16.790Z,10.73
2022-08-21T07:47:43.913Z,14.75
2022-08-21T07:50:13.027Z,15.52
2022-08-21T07:52:41.281Z,13.27
2022-08-21T07:55:10.902Z,12.82
2022-08-21T07:57:38.147Z,13.68
2022-08-21T08:00:07.759Z,17.98
2022-08-21T08:02:34.687Z,10.15
2022-08-21T08:05:03.377Z,14.57
2022-08-21T08:07:30.957Z,16.08
2022-08-21T08:09:57.908Z,12.35
2022-08-21T08:12:30.122Z,12.48
2022-08-21T08:15:01.205Z,14.88
2022-08-21T08:17:28.287Z,11.82
2022-08-21T08:19:56.496Z,10.52
2022-08-21T08:22:25.013Z,10.18
2022-08-21T08:24:54.701Z,8.75
2022-08-21T08:27:22.418Z,10.75
2022-08-21T08:29:49.805Z,10.45
2022-08-21T08:32:16.706Z,14.18
2022-08-21T08:34:44.326Z,14.27
2022-08-21T08:37:12.044Z,10.05
2022-08-21T08:39:39.615Z,19.17
2022-08-21T08:42:33.803Z,13.57
2022-08-21T08:45:24.874Z,11.07
2022-08-21T08:47:59.151Z,16.85
2022-08-21T08:50:45.539Z,14.05
2022-08-21T08:53:19.691Z,11.75
2022-08-21T08:55:47.323Z,8.63
2022-08-21T08:58:40.845Z,8.95
2022-08-21T09:01:16.560Z,11.25
2022-08-21T09:03:43.724Z,10.23
2022-08-21T09:06:36.797Z,8.68
2022-08-21T09:09:50.162Z,6.95
2022-08-21T09:12:27.370Z,8.90
2022-08-21T09:15:02.759Z,10.32
2022-08-21T09:18:07.839Z,12.27
2022-08-21T09:20:34.928Z,10.75
2022-08-21T09:23:22.875Z,8.82
2022-08-21T09:26:17.808Z,9.52
2022-08-21T09:28:45.960Z,10.02
2022-08-21T09:31:28.814Z,6.65
2022-08-21T09:34:00.549Z,8.65
2022-08-21T09:36:52.078Z,8.88
2022-08-21T09:39:25.193Z,10.48
2022-08-21T09:42:01.297Z,8.30
2022-08-21T09:44:31.466Z,9.05
2022-08-21T09:46:58.359Z,10.50
2022-08-21T09:49:38.154Z,8.85
2022-08-21T09:52:15.592Z,11.45
2022-08-21T09:54:42.743Z,9.38
2022-08-21T09:57:28.442Z,11.05
2022-08-21T09:59:56.094Z,11.77
2022-08-21T10:02:27.247Z,9.32
2022-08-21T10:05:04.464Z,11.93
2022-08-21T10:07:33.101Z,7.80
2022-08-21T10:10:09.078Z,9.13
2022-08-21T10:13:00.288Z,8.07
2022-08-21T10:15:46.575Z,7.85
2022-08-21T10:18:25.123Z,8.50
2022-08-21T10:21:03.424Z,12.25
2022-08-21T10:23:42.582Z,6.22
2022-08-21T10:26:44.953Z,6.15
2022-08-21T10:29:37.163Z,10.57
2022-08-21T10:32:04.070Z,8.48
2022-08-21T10:34:46.724Z,10.88
2022-08-21T10:37:46.986Z,6.93
2022-08-21T10:40:23.820Z,5.18
2022-08-21T10:43:03.931Z,10.48
2022-08-21T10:46:03.725Z,7.68
2022-08-21T10:49:10.289Z,5.60
2022-08-21T10:52:16.151Z,4.10
2022-08-21T10:54:46.545Z,6.53
2022-08-21T10:57:32.101Z,4.88
2022-08-21T11:00:09.587Z,9.82
2022-08-21T11:02:49.431Z,7.43
2022-08-21T11:05:25.980Z,10.38
2022-08-21T11:08:07.697Z,6.85
2022-08-21T11:10:57.577Z,5.68
2022-08-21T11:13:55.367Z,8.00
2022-08-21T11:16:43.092Z,8.55
2022-08-21T11:19:28.921Z,7.45
2022-08-21T11:22:01.705Z,8.65
2022-08-21T11:24:28.790Z,11.82
2022-08-21T11:27:33.150Z,4.78
2022-08-21T11:30:01.332Z,14.02
2022-08-21T11:32:55.986Z,9.70
2022-08-21T11:35:50.574Z,6.20
2022-08-21T11:38:34.254Z,8.07
2022-08-21T11:41:22.177Z,10.20
2022-08-21T11:44:17.550Z,10.07
2022-08-21T11:47:12.195Z,7.40
2022-08-21T11:50:01.310Z,9.73
2022-08-21T11:52:47.263Z,9.10
2022-08-21T11:55:23.494Z,9.80
2022-08-21T11:58:02.155Z,8.43
2022-08-21T12:00:59.450Z,5.70
2022-08-21T12:03:35.772Z,13.70
2022-08-21T12:06:08.191Z,5.90
2022-08-21T12:08:36.884Z,6.20
2022-08-21T12:11:23.345Z,7.30
2022-08-21T12:14:01.908Z,5.00
2022-08-21T12:16:37.569Z,5.90
2022-08-21T12:19:12.612Z,8.40
2022-08-21T12:21:58.916Z,6.43
2022-08-21T12:24:28.786Z,8.05
2022-08-21T12:27:13.950Z,6.05
2022-08-21T12:29:48.203Z,6.25
2022-08-21T12:32:15.063Z,8.40
2022-08-21T12:34:50.004Z,5.85
2022-08-21T12:37:23.697Z,5.25
2022-08-21T12:39:53.105Z,6.05
2022-08-21T12:42:43.475Z,2.70
2022-08-21T12:45:41.591Z,9.65
2022-08-21T12:48:10.354Z,8.48
2022-08-21T12:50:38.750Z,5.47
2022-08-21T12:53:29.786Z,3.47
2022-08-21T12:56:02.574Z,7.55
2022-08-21T13:01:18.620Z,4.85
2022-08-21T13:03:45.636Z,4.50
2022-08-21T13:06:17.805Z,4.30
2022-08-21T13:08:47.353Z,5.55
2022-08-21T13:11:17.418Z,4.18
2022-08-21T13:14:04.868Z,6.97
2022-08-21T13:16:32.562Z,6.07
2022-08-21T13:19:06.425Z,3.05
2022-08-21T13:21:42.615Z,3.80
2022-08-21T13:24:42.305Z,5.05
2022-08-21T13:27:21.376Z,4.28
2022-08-21T13:29:53.610Z,3.72
2022-08-21T13:32:25.058Z,6.40
2022-08-21T13:34:54.196Z,7.78
2022-08-21T13:37:23.011Z,5.65
2022-08-21T13:39:53.087Z,6.28
2022-08-21T13:42:20.315Z,6.78
2022-08-21T13:44:49.075Z,8.27
2022-08-21T13:47:18.161Z,4.72
2022-08-21T13:49:47.617Z,9.85
2022-08-21T13:52:26.886Z,9.95
2022-08-21T13:55:13.366Z,5.47
2022-08-21T13:57:40.332Z,7.85
2022-08-21T14:00:26.520Z,6.88
2022-08-21T14:02:55.268Z,7.30
2022-08-21T14:05:26.751Z,5.50
2022-08-21T14:08:03.930Z,9.40
2022-08-21T14:10:31.440Z,7.13
2022-08-21T14:13:04.720Z,4.35
2022-08-21T14:15:34.128Z,5.10
2022-08-21T14:18:17.696Z,7.85
2022-08-21T14:20:44.955Z,8.50
2022-08-21T14:23:12.894Z,5.30
2022-08-21T14:25:44.165Z,4.15
2022-08-21T14:28:28.189Z,4.33
2022-08-21T14:30:56.570Z,5.15
2022-08-21T14:33:29.264Z,5.22
2022-08-21T14:35:57.011Z,7.28
2022-08-21T14:38:26.065Z,4.50
2022-08-21T14:41:05.127Z,4.25
2022-08-21T14:43:32.245Z,6.03
2022-08-21T14:45:59.070Z,7.55
2022-08-21T14:48:25.934Z,5.35
2022-08-21T14:50:57.135Z,8.23
2022-08-21T14:53:26.737Z,4.75
2022-08-21T14:56:08.776Z,6.45
2022-08-21T14:58:43.651Z,6.68
2022-08-21T15:01:12.172Z,6.97
2022-08-21T15:03:39.862Z,9.18
2022-08-21T15:06:07.904Z,5.15
2022-08-21T15:08:35.307Z,6.43
2022-08-21T15:11:12.731Z,5.07
2022-08-21T15:13:41.510Z,2.67
2022-08-21T15:16:10.238Z,7.72
2022-08-21T15:18:37.195Z,3.38
2022-08-21T15:21:04.179Z,5.15
2022-08-21T15:23:31.142Z,4.97
2022-08-21T15:26:01.115Z,6.70
2022-08-21T15:28:31.769Z,6.93
2022-08-21T15:31:01.365Z,6.53
2022-08-21T15:33:28.441Z,4.22
2022-08-21T15:35:55.586Z,4.75
2022-08-21T15:38:22.599Z,4.72
2022-08-21T15:40:52.458Z,4.43
2022-08-21T15:43:31.261Z,6.10
2022-08-21T15:46:01.174Z,4.93
2022-08-21T15:48:28.723Z,2.65
2022-08-21T15:50:55.527Z,6.35
2022-08-21T15:53:22.456Z,6.78
2022-08-21T15:55:49.319Z,6.95
2022-08-21T15:58:17.410Z,6.97
2022-08-21T16:00:45.624Z,3.67
2022-08-21T16:03:16.876Z,3.40
2022-08-21T16:05:45.800Z,2.92
2022-08-21T16:08:13.200Z,5.75
2022-08-21T16:10:41.313Z,4.15
2022-08-21T16:13:20.380Z,3.33
2022-08-21T16:15:47.293Z,4.03
2022-08-21T16:18:14.500Z,5.20
2022-08-21T16:20:41.553Z,7.43
2022-08-21T16:23:08.454Z,4.25
2022-08-21T16:25:40.031Z,6.30
2022-08-21T16:28:09.100Z,3.87
2022-08-21T16:30:39.200Z,1.70
2022-08-21T16:33:06.980Z,2.88
2022-08-21T16:35:33.893Z,2.72
2022-08-21T16:38:01.100Z,4.45
2022-08-21T16:40:28.591Z,3.38
2022-08-21T16:42:56.323Z,2.53
2022-08-21T16:45:23.418Z,3.83
2022-08-21T16:47:51.545Z,3.88
2022-08-21T16:50:22.612Z,2.75
2022-08-21T16:52:50.784Z,2.47
2022-08-21T16:55:18.178Z,4.88
2022-08-21T16:57:45.145Z,3.53
2022-08-21T17:00:13.612Z,6.22
2022-08-21T17:02:45.409Z,1.92
2022-08-21T17:05:14.022Z,5.22
2022-08-21T17:07:42.531Z,3.83
2022-08-21T17:10:10.867Z,10.38
2022-08-21T17:12:38.078Z,6.05
2022-08-21T17:15:16.303Z,5.55
2022-08-21T17:17:48.412Z,3.95
2022-08-21T17:20:15.726Z,4.85
2022-08-21T17:22:42.666Z,4.30
2022-08-21T17:25:09.802Z,4.32
2022-08-21T17:27:36.859Z,2.35
2022-08-21T17:30:06.946Z,3.63
2022-08-21T17:32:33.942Z,3.55
2022-08-21T17:35:00.767Z,4.78
2022-08-21T17:37:29.472Z,3.67
2022-08-21T17:39:57.216Z,3.88
2022-08-21T17:42:25.293Z,3.03
2022-08-21T17:44:52.784Z,3.25
2022-08-21T17:47:19.695Z,3.50
2022-08-21T17:49:46.519Z,4.15
2022-08-21T17:52:13.391Z,4.95
2022-08-21T17:54:41.227Z,6.05
2022-08-21T17:57:08.789Z,3.58
2022-08-21T17:59:35.703Z,3.08
2022-08-21T18:02:03.816Z,6.00
2022-08-21T18:04:32.989Z,2.38
2022-08-21T18:07:00.040Z,4.35
2022-08-21T18:09:28.178Z,4.03
2022-08-21T18:11:57.112Z,4.15
2022-08-21T18:14:28.323Z,5.45
2022-08-21T18:16:56.344Z,4.03
2022-08-21T18:19:26.126Z,7.65
2022-08-21T18:21:56.271Z,3.83
2022-08-21T18:24:24.042Z,3.65
2022-08-21T18:26:51.172Z,4.57
2022-08-21T18:29:20.043Z,3.17
2022-08-21T18:31:47.154Z,5.95
2022-08-21T18:34:27.120Z,3.40
2022-08-21T18:36:54.503Z,1.83
2022-08-21T18:39:38.226Z,4.93
2022-08-21T18:42:10.149Z,2.17
2022-08-21T18:44:37.770Z,7.68
2022-08-21T18:47:12.247Z,5.25
2022-08-21T18:49:39.465Z,5.03
2022-08-21T18:52:08.802Z,4.15
2022-08-21T18:57:29.199Z,4.63
2022-08-21T18:59:57.096Z,3.65
2022-08-21T19:02:25.809Z,4.75
2022-08-21T19:04:52.686Z,5.78
2022-08-21T19:07:20.469Z,3.45
2022-08-21T19:10:07.533Z,5.97
2022-08-21T19:12:35.107Z,2.67
2022-08-21T19:15:02.203Z,5.97
2022-08-21T19:17:29.800Z,6.15
2022-08-21T19:19:59.957Z,6.50
2022-08-21T19:22:27.003Z,3.47
2022-08-21T19:24:54.134Z,2.38
2022-08-21T19:27:21.008Z,5.32
2022-08-21T19:29:50.547Z,3.80
2022-08-21T19:32:20.110Z,4.93
2022-08-21T19:34:49.906Z,2.90
2022-08-21T19:37:20.640Z,4.18
2022-08-21T19:39:50.138Z,5.95
2022-08-21T19:42:21.012Z,3.33
2022-08-21T19:44:50.957Z,1.50
2022-08-21T19:47:21.329Z,3.90
2022-08-21T19:49:58.583Z,7.10
2022-08-21T19:52:25.796Z,5.82
2022-08-21T19:54:52.737Z,5.15
2022-08-21T19:57:19.672Z,4.88
2022-08-21T19:59:46.614Z,2.45
2022-08-21T20:02:15.086Z,4.25
2022-08-21T20:04:54.010Z,6.65
2022-08-21T20:07:29.206Z,6.78
2022-08-21T20:09:59.283Z,2.92
2022-08-21T20:12:26.792Z,4.03
2022-08-21T20:14:54.046Z,3.03
2022-08-21T20:17:21.625Z,5.25
2022-08-21T20:22:36.035Z,3.38
2022-08-21T20:25:03.201Z,3.97
2022-08-21T20:27:30.083Z,4.05
2022-08-21T20:29:57.169Z,4.13
2022-08-21T20:32:24.097Z,3.90
2022-08-21T20:34:51.963Z,6.38
2022-08-21T20:37:38.386Z,5.07
2022-08-21T20:40:11.761Z,5.07
2022-08-21T20:42:47.228Z,3.92
2022-08-21T20:45:29.735Z,4.65
2022-08-21T20:48:06.908Z,4.05
2022-08-21T20:50:37.532Z,3.50
2022-08-21T20:53:14.108Z,3.15
2022-08-21T20:55:47.473Z,6.10
2022-08-21T20:58:29.838Z,5.40
2022-08-21T21:01:00.305Z,4.60
2022-08-21T21:03:42.230Z,5.18
2022-08-21T21:06:15.272Z,2.38
2022-08-21T21:11:19.219Z,4.53
2022-08-21T21:13:50.891Z,3.90
2022-08-21T21:16:20.925Z,3.95
2022-08-21T21:18:55.644Z,4.53
2022-08-21T21:21:51.608Z,4.82
2022-08-21T21:24:31.903Z,4.25
2022-08-21T21:27:11.783Z,7.03
2022-08-21T21:29:52.618Z,4.80
2022-08-21T21:32:20.451Z,3.88
2022-08-21T21:34:51.167Z,2.55
2022-08-21T21:37:25.489Z,3.50
2022-08-21T21:39:57.756Z,3.95
2022-08-21T21:42:54.751Z,3.77
2022-08-21T21:45:51.965Z,4.25
2022-08-21T21:48:59.538Z,7.78
2022-08-21T21:51:26.554Z,6.72
2022-08-21T21:54:04.955Z,5.22
2022-08-21T21:57:22.333Z,5.22
2022-08-21T21:59:56.347Z,2.03
2022-08-21T22:02:32.096Z,3.97
2022-08-21T22:05:32.000Z,2.75
2022-08-21T22:08:07.983Z,5.47
2022-08-21T22:10:51.980Z,6.32
2022-08-21T22:13:26.924Z,5.20
2022-08-21T22:15:54.718Z,3.65
2022-08-21T22:18:31.899Z,4.20
2022-08-21T22:21:09.116Z,3.30
2022-08-21T22:23:46.908Z,3.90
2022-08-21T22:26:18.283Z,6.30
2022-08-21T22:28:47.992Z,4.90
2022-08-21T22:31:19.678Z,3.40
2022-08-21T22:34:01.298Z,2.92
2022-08-21T22:36:35.340Z,3.50
2022-08-21T22:39:05.786Z,2.35
2022-08-21T22:41:39.720Z,7.78
2022-08-21T22:44:08.190Z,5.07
2022-08-21T22:46:50.408Z,5.60
2022-08-21T22:52:35.529Z,2.65
2022-08-21T22:55:17.810Z,8.48
2022-08-21T22:58:04.125Z,7.85
2022-08-21T23:01:26.084Z,6.97
2022-08-21T23:03:58.749Z,6.32
2022-08-21T23:06:42.920Z,4.22
2022-08-21T23:09:31.068Z,5.20
2022-08-21T23:12:01.500Z,8.10
2022-08-21T23:14:48.014Z,6.95
2022-08-21T23:17:39.948Z,6.32
2022-08-21T23:20:27.307Z,3.50
2022-08-21T23:23:05.620Z,5.93
2022-08-21T23:26:12.334Z,3.28
2022-08-21T23:29:24.843Z,4.68
2022-08-21T23:35:51.122Z,4.10
2022-08-21T23:38:42.888Z,5.50
2022-08-21T23:41:34.340Z,7.97
2022-08-21T23:44:32.582Z,7.90
2022-08-21T23:47:06.015Z,1.92
2022-08-21T23:49:45.065Z,8.35
2022-08-21T23:52:26.489Z,5.55
2022-08-21T23:55:18.321Z,2.70
2022-08-21T23:58:15.669Z,3.17
